Strona główna
METAR-TAF:

METAR-TAF

Lotnisko :

Auburn/Lewiston Municipal Airport

Auburn / Lewiston, Maine, Stany Zjednoczone

Szerokość geograficzna: 44-03N, Długość geograficzna: 070-17W, wysokość: 88 m

Aktualna obserwacja pogody

Raport powstał 28 minut temu, godzina 07:56 UTC
Wiatr 3 kt od północ
Temperatura -1°C
Wilgotność 80%
Ciśnienie 1011 hPa
Widzialność: 16.1 km
bezchmurnie

METAR: KLEW 070756Z AUTO 01003KT 10SM CLR M01/M04 A2985 RMK AO2 SLP116 T10061044 FZRANO

czas: 04:24 (08:24 UTC)


TAF: brakujący

Obserwacja i prognoza pogody dla ponad 4000 lotnisk (raport METAR i TAF).

Dostępne stacje oznaczono żółtymi i czerwonymi punktami na mapie.

Najedź kursorem aby zobaczyć nazwę stacji.

Kliknij aby zobaczyć obserwacje i prognozy pogody.

Aby zmienić mapę: kliknij na zielony przycisk z czarnym krzyżykiem, aby powiększyć; na zielony przycisk z myślnikiem, aby pomniejszyć; na zielone strzałki, aby przejść do map sąsiednich.


METAR-TAF: